Latest Weather Observations for Grafton AgRS

IDN60801

Issued at 6:32 pm EDT Friday 27 March 2015 (issued every 30 minutes, with the page automatically refreshed every 10 minutes)

About weather observations | Map of weather stations | Latest weather observations for NSW | Other Formats
Station Details ID: 058077 Name: GRAFTON RESEARCH STN Lat: -29.62 Lon: 152.96 Height: 25.0 m
Data from the previous 72 hours. | See also: Recent months for locations in New South Wales
Date/Time
EDT
Temp
°C
App
Temp
°C
Dew
Point
Rel
Hum
%
Delta-T
°C
Wind Press
QNH
hPa
Press
MSL
hPa
Rain
since 9 am
mm
Dir
 
Spd
km/h
Gust
km/h
Spd
kts
Gust
kts
27/06:30pm 22.1 22.0 16.1 69 3.6 ESE 11 17 6 9 - - 0.0
27/06:00pm 23.1 21.9 16.2 65 4.2 ESE 17 24 9 13 - - 0.0
27/05:30pm 23.7 21.9 16.0 62 4.7 ESE 20 26 11 14 - - 0.0
27/05:00pm 24.5 23.0 16.2 60 5.1 ESE 19 30 10 16 - - 0.0
27/04:30pm 24.7 23.2 16.4 60 5.1 E 19 24 10 13 - - 0.0
27/04:00pm 25.8 24.7 17.4 59 5.3 ESE 19 24 10 13 - - 0.0
27/03:30pm 26.0 25.4 17.6 60 5.3 ESE 17 24 9 13 - - 0.0
27/03:00pm 26.2 25.6 17.6 59 5.4 ESE 17 26 9 14 - - 0.0
27/02:30pm 26.3 25.9 16.3 54 6.2 ESE 13 22 7 12 - - 0.0
27/02:00pm 26.0 25.6 17.1 58 5.5 SE 15 20 8 11 - - 0.0
27/01:30pm 26.5 26.7 16.7 55 6.1 ENE 11 20 6 11 - - 0.0
27/01:00pm 25.2 23.9 15.8 56 5.7 ESE 17 24 9 13 - - 0.0
27/12:30pm 25.9 25.4 15.9 54 6.1 E 13 24 7 13 - - 0.0
27/12:00pm 25.8 25.7 16.1 55 5.9 SE 11 19 6 10 - - 0.0
27/11:30am 25.6 25.1 15.9 55 5.9 ESE 13 19 7 10 - - 0.0
27/11:00am 25.0 25.0 15.3 55 5.8 S 9 15 5 8 - - 0.0
27/10:30am 24.4 23.5 14.8 55 5.7 S 13 20 7 11 - - 0.0
27/10:00am 24.0 22.5 14.1 54 5.8 SSE 15 20 8 11 - - 0.0
27/09:30am 23.5 22.2 14.8 58 5.2 SSE 15 20 8 11 - - 0.0
27/09:00am 22.7 22.6 16.9 70 3.6 SSE 13 19 7 10 - - 0.0
27/08:30am 21.4 23.0 17.8 80 2.2 SSW 6 9 3 5 - - 0.0
27/08:00am 20.5 21.6 17.1 81 2.1 SSW 7 9 4 5 - - 0.0
27/07:30am 19.7 20.7 16.9 84 1.7 SW 7 9 4 5 - - 0.0
27/07:00am 20.1 21.3 16.9 82 1.9 WSW 6 7 3 4 - - 0.0
27/06:30am 20.0 21.5 17.6 86 1.5 W 6 7 3 4 - - 0.0
27/06:00am 19.8 21.1 17.6 87 1.3 WSW 7 11 4 6 - - 0.0
27/05:30am 19.4 19.9 17.5 89 1.2 WSW 11 13 6 7 - - 0.0
27/05:00am 20.1 21.1 18.6 91 0.9 W 11 15 6 8 - - 0.0
27/04:30am 20.4 21.5 19.6 95 0.5 W 13 15 7 8 - - 0.0
27/04:00am 20.6 22.5 19.8 95 0.5 WSW 9 13 5 7 - - 0.0
27/03:30am 21.2 22.8 20.7 97 0.3 W 13 15 7 8 - - 0.0
27/03:00am 22.2 25.2 21.9 98 0.2 W 9 11 5 6 - - 0.0
27/02:30am 22.4 25.7 21.9 97 0.3 WNW 7 9 4 5 - - 0.0
27/02:00am 22.4 25.9 21.9 97 0.3 WNW 6 7 3 4 - - 0.0
27/01:30am 22.6 27.4 22.1 97 0.3 CALM 0 0 0 0 - - 0.0
27/01:00am 22.8 27.6 22.1 96 0.5 CALM 0 0 0 0 - - 0.0
27/12:30am 23.3 27.3 22.8 97 0.3 WNW 6 6 3 3 - - 0.0
27/12:00am 23.1 26.9 22.4 96 0.5 NNW 6 7 3 4 - - 0.0
 
Date/Time
EDT
Temp
°C
App
Temp
°C
Dew
Point
Rel
Hum
%
Delta-T
°C
Wind Press
QNH
hPa
Press
MSL
hPa
Rain
since 9 am
mm
Dir
 
Spd
km/h
Gust
km/h
Spd
kts
Gust
kts
26/11:30pm 23.5 28.7 22.8 96 0.5 CALM 0 0 0 0 - - 0.0
26/11:00pm 23.9 29.2 23.0 95 0.6 CALM 0 0 0 0 - - 0.0
26/10:30pm 24.0 29.2 22.8 93 0.8 CALM 0 0 0 0 - - 0.0
26/10:00pm 24.2 29.2 23.2 94 0.7 NNE 2 9 1 5 - - 0.0
26/09:30pm 24.3 29.0 22.7 91 1.1 S 2 7 1 4 - - 0.0
26/09:00pm 24.6 29.9 23.0 91 1.1 CALM 0 0 0 0 - - 0.0
26/08:30pm 25.2 30.7 23.4 90 1.2 CALM 0 0 0 0 - - 0.0
26/08:00pm 25.3 30.3 23.2 88 1.4 ENE 2 7 1 4 - - 0.0
26/07:30pm 25.7 29.8 23.2 86 1.7 NE 7 9 4 5 - - 0.0
26/07:00pm 26.4 30.6 23.5 84 2.0 NE 7 11 4 6 - - 0.0
26/06:30pm 27.5 31.2 23.3 78 2.9 ENE 9 15 5 8 - - 0.0
26/06:00pm 28.6 32.6 23.7 75 3.4 NE 9 19 5 10 - - 0.0
26/05:30pm 29.1 32.7 23.8 73 3.7 ENE 11 17 6 9 - - 0.0
26/05:00pm 30.1 33.7 23.0 65 4.9 NE 9 15 5 8 - - 0.0
26/04:30pm 30.3 33.7 22.7 64 5.2 NNE 9 15 5 8 - - 0.0
26/04:00pm 29.4 33.0 23.1 69 4.3 NNE 9 15 5 8 - - 0.0
26/03:30pm 30.7 34.2 23.6 66 4.9 NNE 11 20 6 11 - - 0.0
26/03:00pm 29.9 33.0 22.9 66 4.8 NE 11 17 6 9 - - 0.0
26/02:30pm 29.0 31.7 22.2 66 4.6 NNE 11 15 6 8 - - 0.0
26/02:00pm 29.5 32.8 23.2 69 4.3 N 11 17 6 9 - - 0.0
26/01:30pm 28.7 31.7 22.0 67 4.5 NE 9 17 5 9 - - 0.0
26/01:00pm 28.7 32.9 23.4 73 3.6 NNE 7 13 4 7 - - 0.0
26/12:30pm 28.2 32.1 22.9 73 3.6 E 7 9 4 5 - - 0.0
26/12:00pm 26.8 30.4 22.0 75 3.2 NNW 6 11 3 6 - - 0.0
26/11:30am 25.9 29.1 21.3 76 3.0 WSW 6 9 3 5 - - 0.0
26/11:00am 25.2 29.2 21.3 79 2.6 SW 2 7 1 4 - - 0.0
26/10:30am 24.7 27.8 21.0 80 2.4 S 6 7 3 4 - - 0.0
26/10:00am 24.3 28.0 20.8 81 2.3 WSW 2 9 1 5 - - 0.0
26/09:30am 23.5 27.5 20.6 84 1.9 CALM 0 4 0 2 - - 0.0
26/09:00am 22.8 25.1 20.7 88 1.4 W 9 13 5 7 - - 0.0
26/08:30am 22.6 24.9 20.7 89 1.2 WSW 9 13 5 7 - - 0.0
26/08:00am 22.2 24.8 20.5 90 1.1 WSW 7 9 4 5 - - 0.0
26/07:30am 21.5 24.1 20.5 94 0.6 WNW 7 9 4 5 - - 0.0
26/07:00am 21.4 23.9 20.2 93 0.8 WNW 7 9 4 5 - - 0.0
26/06:30am 21.3 24.2 19.9 92 0.9 WNW 4 6 2 3 - - 0.0
26/06:00am 21.4 23.4 20.0 92 0.9 W 9 11 5 6 - - 0.0
26/05:30am 21.3 23.6 19.9 92 0.9 W 7 9 4 5 - - 0.0
26/05:00am 21.3 23.6 19.9 92 0.9 W 7 9 4 5 - - 0.0
26/04:30am 21.3 23.6 19.9 92 0.9 WSW 7 11 4 6 - - 0.0
26/04:00am 21.2 23.1 19.8 92 0.9 W 9 11 5 6 - - 0.0
26/03:30am 21.3 23.3 19.9 92 0.9 W 9 11 5 6 - - 0.0
26/03:00am 21.2 23.5 19.8 92 0.9 W 7 13 4 7 - - 0.0
26/02:30am 21.2 23.5 19.8 92 0.9 W 7 11 4 6 - - 0.0
26/02:00am 21.1 23.1 19.9 93 0.8 W 9 11 5 6 - - 0.0
26/01:30am 21.1 23.3 19.6 91 1.0 W 7 9 4 5 - - 0.0
26/01:00am 21.3 23.6 19.8 91 1.0 W 7 11 4 6 - - 0.0
26/12:30am 21.4 23.7 19.9 91 1.0 WSW 7 11 4 6 - - 0.0
26/12:00am 21.6 23.9 19.9 90 1.1 WSW 7 9 4 5 - - 0.0
 
Date/Time
EDT
Temp
°C
App
Temp
°C
Dew
Point
Rel
Hum
%
Delta-T
°C
Wind Press
QNH
hPa
Press
MSL
hPa
Rain
since 9 am
mm
Dir
 
Spd
km/h
Gust
km/h
Spd
kts
Gust
kts
25/11:30pm 21.6 23.7 20.1 91 1.0 WSW 9 13 5 7 - - 0.0
25/11:00pm 21.8 24.2 20.1 90 1.1 SW 7 9 4 5 - - 0.0
25/10:30pm 21.8 23.4 19.9 89 1.2 SSW 11 15 6 8 - - 0.0
25/10:00pm 21.9 23.8 19.8 88 1.3 SSW 9 13 5 7 - - 0.0
25/09:30pm 22.0 24.2 19.7 87 1.5 SSW 7 9 4 5 - - 0.0
25/09:00pm 22.1 24.4 19.8 87 1.5 SSW 7 11 4 6 - - 0.0
25/08:30pm 22.3 23.8 19.7 85 1.7 S 11 15 6 8 - - 0.0
25/08:00pm 22.6 23.8 19.8 84 1.8 S 13 17 7 9 - - 0.0
25/07:30pm 22.8 24.8 20.0 84 1.8 SSW 9 11 5 6 - - 0.0
25/07:00pm 23.0 24.7 20.1 84 1.9 SSE 11 17 6 9 - - 0.0
25/06:30pm 23.3 24.2 20.1 82 2.1 SE 15 22 8 12 - - 0.0
25/06:00pm 23.5 24.1 20.2 82 2.1 SE 17 20 9 11 - - 0.0
25/05:30pm 24.0 24.3 20.3 80 2.4 SE 19 24 10 13 - - 0.0
25/05:00pm 24.3 25.1 20.6 80 2.4 SE 17 26 9 14 - - 0.0
25/04:30pm 24.5 24.6 20.4 78 2.7 SE 20 28 11 15 - - 0.0
25/04:00pm 25.1 25.6 20.8 77 2.8 ESE 19 30 10 16 - - 0.0
25/03:30pm 25.2 25.1 20.7 76 3.0 ESE 22 32 12 17 - - 0.0
25/03:00pm 26.3 27.2 21.9 77 2.9 ESE 20 32 11 17 - - 0.0
25/02:30pm 25.6 25.0 20.4 73 3.4 ESE 24 32 13 17 - - 0.0
25/02:00pm 26.3 26.1 20.6 71 3.7 ESE 22 30 12 16 - - 0.0
25/01:30pm 26.9 27.7 21.4 72 3.7 ESE 19 26 10 14 - - 0.0
25/01:00pm 26.6 26.8 21.4 73 3.5 SE 22 28 12 15 - - 0.0
25/12:30pm 27.0 27.6 21.3 71 3.8 SE 20 30 11 16 - - 0.0
25/12:00pm 26.3 26.5 20.6 71 3.7 ESE 20 28 11 15 - - 0.0
25/11:30am 27.8 28.1 21.6 69 4.1 SE 22 30 12 16 - - 0.0
25/11:00am 26.7 27.4 21.5 73 3.5 SE 20 26 11 14 - - 0.0
25/10:30am 26.8 27.9 21.3 72 3.7 SE 17 24 9 13 - - 0.0
25/10:00am 26.6 28.5 22.0 76 3.1 SSE 15 19 8 10 - - 0.0
25/09:30am 25.6 27.0 21.9 80 2.5 ESE 17 20 9 11 - - 0.0
25/09:00am 25.8 28.4 21.9 79 2.6 ENE 11 17 6 9 - - 0.0
25/08:30am 23.3 25.1 21.2 88 1.4 ESE 13 17 7 9 - - 0.0
25/08:00am 22.0 24.4 20.8 93 0.8 ESE 9 15 5 8 - - 0.0
25/07:30am 20.9 24.7 20.1 95 0.5 CALM 0 0 0 0 - - 0.0
25/07:00am 20.7 23.9 19.7 94 0.6 ENE 2 7 1 4 - - 0.0
25/06:30am 20.8 23.5 19.5 92 0.8 NNW 4 6 2 3 - - 0.0
25/06:00am 21.2 24.3 19.5 90 1.1 SW 2 6 1 3 - - 0.0
25/05:30am 21.5 24.0 19.8 90 1.1 NW 6 7 3 4 - - 0.0
25/05:00am 21.7 25.2 19.6 88 1.3 CALM 0 0 0 0 - - 0.0
25/04:30am 22.2 25.0 19.6 85 1.7 NW 4 6 2 3 - - 0.0
25/04:00am 22.4 24.8 19.6 84 1.8 NNW 6 7 3 4 - - 0.0
25/03:30am 23.0 25.4 20.0 83 1.9 NNW 7 9 4 5 - - 0.0
25/03:00am 23.3 25.6 19.9 81 2.2 N 7 11 4 6 - - 0.0
25/02:30am 23.7 26.1 20.0 80 2.4 N 7 11 4 6 - - 0.0
25/02:00am 24.0 26.2 20.3 80 2.4 N 9 15 5 8 - - 0.0
25/01:30am 23.9 26.1 20.4 81 2.3 N 9 15 5 8 - - 0.0
25/01:00am 24.0 26.2 20.5 81 2.3 N 9 13 5 7 - - 0.0
25/12:30am 24.0 26.3 20.7 82 2.2 NNE 9 13 5 7 - - 0.0
25/12:00am 24.2 27.0 20.9 82 2.2 NNE 7 11 4 6 - - 0.0
 
Date/Time
EDT
Temp
°C
App
Temp
°C
Dew
Point
Rel
Hum
%
Delta-T
°C
Wind Press
QNH
hPa
Press
MSL
hPa
Rain
since 9 am
mm
Dir
 
Spd
km/h
Gust
km/h
Spd
kts
Gust
kts
24/11:30pm 24.6 27.0 20.9 80 2.4 NW 9 15 5 8 - - 0.0
24/11:00pm 24.5 27.0 21.0 81 2.3 NW 9 15 5 8 - - 0.0
24/10:30pm 24.3 26.8 21.0 82 2.2 N 9 13 5 7 - - 0.0
24/10:00pm 24.4 27.4 20.9 81 2.3 N 6 11 3 6 - - 0.0
24/09:30pm 24.7 27.8 21.0 80 2.4 N 6 11 3 6 - - 0.0
24/09:00pm 25.0 28.0 21.3 80 2.4 NNE 7 15 4 8 - - 0.0
24/08:30pm 24.9 28.2 21.8 83 2.1 NNE 7 13 4 7 - - 0.0
24/08:00pm 25.3 28.7 22.0 82 2.2 NE 7 13 4 7 - - 0.0
24/07:30pm 25.7 28.9 21.6 78 2.7 ENE 7 11 4 6 - - 0.0
24/07:00pm 26.9 29.2 19.8 65 4.6 NNE 7 11 4 6 - - 0.0

Other Formats:

Comma delimited format used in spreadsheet applications
http://www.bom.gov.au/fwo/IDN60801/IDN60801.95571.axf

JavaScript Object Notation format (JSON) in row-major order
http://www.bom.gov.au/fwo/IDN60801/IDN60801.95571.json